Wiggins, Karen
United StatesWomanBorn 19592006 – 2026Runner id 30581
Events
154
152 race dates
Best pace
9.059
km/h · 2009
Best finish
40th
of 126 · 2011
Distance raced
9,084
km · splits not double-counted
Pace over time
152 of 154 results · km/h
Pace over time: 152 races from 2006 to 2026, ranging from 3.30 to 10.26 kilometres per hour, where higher is faster. A second, age-graded series is drawn above it; the gap between the two is the age credit.
- Actual pace
- Age-graded pace
2 results are not on this chart. They are counted in every statistic above and listed in full below — backyard ultras carry a lap count instead of a pace, which is the number that means something in that format.
Results
| Date | Event | Distance | Result | Pace km/h | Placing |
|---|---|---|---|---|---|
| 2006-05-20 | Watershed Preserve 12 Hr Trail RaceUnited States | 12h | 51.901 km | 4.325 | 27/30 |
| 2006-05-28 | 50km | 6:47:42 h | 7.358 | 11/15 | |
| 2006-07-15 | 50km | 6:56:07 h | 7.210 | 94/125 | |
| 2006-07-29 | 50mi | 11:15:42 h | 7.145 | 86/104 | |
| 2006-09-16 | 50km | 7:41:17 h | 6.504 | 47/70 | |
| 2006-10-07 | Baker Lake 50K Ultra Trail RunUnited States | 50km | 7:25:31 h | 6.734 | 96/113 |
| 2006-11-04 | 100mi | 28:39:20 h | 5.616 | 63/71 | |
| 2007-01-13 | Bridle Trails Winter Running FestivalUnited States | 50km | 5:43:33 h | 8.732 | 37/44 |
| 2007-01-20 | Capitol Peak MegaFatAssUnited States | 34mi | 8:14:00 h | 6.646 | 16/16 |
| 2007-02-03 | Pigtails Run 29MilesUnited States | 29Mile | 4:57:01 h | — | 4/9 |
| 2007-02-24 | 50km | 6:56:12 h | 7.208 | 71/92 | |
| 2007-03-17 | Chuckanut 50KUnited States | 50km | 7:04:24 h | 7.069 | 203/260 |
| 2007-04-22 | 50mi | 9:30:06 h | 8.469 | 38/54 | |
| 2007-04-28 | Capitol Peak 50 MilerUnited States | 50mi | 12:21:52 h | 6.508 | 36/36 |
| 2007-06-09 | Lake Youngs UltraUnited States | 28.8mi | 5:09:00 h | 9.000 | 36/62 |
| 2007-07-14 | 50km | 7:00:29 h | 7.135 | 118/135 | |
| 2007-07-28 | 50mi | 10:47:44 h | 7.454 | 51/80 | |
| 2007-08-18 | 100km | 16:36:39 h | 6.020 | 69/81 | |
| 2007-10-06 | Baker Lake 50K Ultra Trail RunUnited States | 50km | 7:40:59 h | 6.508 | 62/77 |
| 2007-10-13 | 100mi | 23:58:32 h | 6.712 | 19/52 | |
| 2007-11-03 | 50mi | 10:04:46 h | 7.983 | 17/29 | |
| 2008-01-12 | Bridle Trails Winter Running FestivalUnited States | 50km | 6:37:53 h | 7.540 | 41/44 |
| 2008-01-26 | Pigtails Run 50KUnited States | 50km | 5:50:23 h | 8.562 | 36/49 |
| 2008-02-03 | Lord Hill Trail RunUnited States | 50km | 7:06:00 h | 7.042 | 28/30 |
| 2008-02-16 | 50km | 7:57:07 h | 6.288 | 51/59 | |
| 2008-03-15 | Chuckanut 50KUnited States | 50km | 6:54:27 h | 7.239 | 223/294 |
| 2008-03-21 | 100mi | 38:59:00 h | 4.128 | 42/44 | |
| 2008-04-13 | 60km | 7:11:21 h | 8.346 | 99/116 | |
| 2008-05-31 | The 20th Century 50K Trail RunUnited States | 50km | 5:51:12 h | 8.542 | 11/15 |
| 2008-09-06 | McKenzie River 50 km Trail RunUnited States | 50km | 6:56:56 h | 7.195 | 121/134 |
| 2008-10-04 | Three Corner Rock PCT (Bunker to Bonneville)United States | 50km | 7:58:45 h | 6.266 | 9/12 |
| 2008-10-19 | 50km | 6:30:00 h | 7.692 | 12/19 | |
| 2008-10-20 | Baker Lake 50K Ultra Trail RunUnited States | 50km | 6:34:09 h | 7.611 | 46/86 |
| 2008-11-01 | Ron Herzog 50KUnited States | 50km | 6:08:00 h | 8.152 | 21/30 |
| 2009-01-24 | Pigtails Run 29MilesUnited States | 29Mile | 5:37:00 h | — | 2/3 |
| 2009-02-07 | Orcas Island 50kUnited States | 50km | 8:19:24 h | 6.007 | 102/106 |
| 2009-02-21 | 50km | 6:35:48 h | 7.580 | 105/118 | |
| 2009-03-14 | 36.2mi | 9:07:10 h | 6.388 | 70/79 | |
| 2009-03-21 | Chuckanut 50KUnited States | 50km | 6:36:46 h | 7.561 | 207/270 |
| 2009-04-25 | 50mi | 12:01:45 h | 6.689 | 38/43 | |
| 2009-05-09 | 50km | 6:48:54 h | 7.337 | 107/163 | |
| 2009-06-06 | Blanchard Mountain Trail UltraUnited States | 50km | 7:52:00 h | 6.356 | 10/17 |
| 2009-06-13 | Lake Youngs UltraUnited States | 28.8mi | 5:06:59 h | 9.059 | 36/58 |
| 2009-08-08 | 50mi | 12:21:04 h | 6.515 | 60/63 | |
| 2009-09-20 | Big DabrowskiUnited States | 50km | 8:22:00 h | 5.976 | 12/21 |
| 2009-10-03 | Baker Lake 50K Ultra Trail RunUnited States | 50km | 8:12:00 h | 6.098 | 55/65 |
| 2010-01-16 | 34mi | 7:18:00 h | 7.496 | 35/38 | |
| 2010-02-06 | 50km | 7:45:29 h | 6.445 | 103/123 | |
| 2010-02-14 | 50km | 7:09:00 h | 6.993 | 14/20 | |
| 2010-02-20 | 50km | 6:24:37 h | 7.800 | 92/126 | |
| 2010-03-07 | Lord Hill Trail RunUnited States | 50km | 7:11:35 h | 6.951 | 19/21 |
| 2010-03-20 | 24h | 100.000 km | 4.167 | 31/73 | |
| 2010-04-09 | 50mi | 12:54:00 h | 6.238 | 23/26 | |
| 2010-04-25 | 50mi | 11:19:26 h | 7.106 | 67/88 | |
| 2010-05-15 | 12h | 60.559 km | 5.047 | 62/80 | |
| 2010-06-12 | 28.8mi | 5:42:00 h | 8.131 | 43/61 | |
| 2010-07-23 | 100km | 30:17:16 h | 3.302 | 17/17 | |
| 2010-08-21 | 100km | 17:41:34 h | 5.652 | 97/107 | |
| 2010-10-02 | Baker Lake 50K Ultra Trail RunUnited States | 50km | 7:26:00 h | 6.726 | 89/115 |
| 2010-11-06 | Ron Herzog 50KUnited States | 50km | 6:57:48 h | 7.180 | 31/35 |
| 2011-01-22 | Pigtails Run 50KUnited States | 50km | 5:59:49 h | 8.338 | 61/84 |
| 2011-02-05 | 50km | 9:10:04 h | 5.454 | 119/129 | |
| 2011-02-19 | 50km | 6:44:41 h | 7.413 | 163/211 | |
| 2011-03-11 | 50km | 8:04:53 h | 6.187 | 104/125 | |
| 2011-04-16 | 50mi | 12:45:00 h | 6.311 | 13/25 | |
| 2011-04-30 | 55km | 9:47:21 h | 5.618 | 49/49 | |
| 2011-05-29 | 50km | 7:05:12 h | 7.056 | 87/106 | |
| 2011-06-12 | 50km | 8:48:37 h | 5.675 | 66/70 | |
| 2011-06-18 | 50km | 6:46:24 h | 7.382 | 37/55 | |
| 2011-07-30 | 50mi | 12:48:08 h | 6.285 | 220/244 | |
| 2011-09-04 | 50km | 7:26:30 h | 6.719 | 8/11 | |
| 2011-10-15 | 50km | 7:04:03 h | 7.075 | 102/112 | |
| 2011-10-29 | 50km | 6:29:32 h | 7.702 | 26/46 | |
| 2011-11-12 | 100km | 14:23:27 h | 6.949 | 40/126 | |
| 2011-12-10 | 50km | 7:44:00 h | 6.466 | 58/63 | |
| 2012-02-04 | 50km | 8:36:27 h | 5.809 | 157/171 | |
| 2012-04-21 | 50mi | 12:30:00 h | 6.437 | 8/9 | |
| 2012-05-05 | 100km | 17:16:44 h | 5.787 | 260/264 | |
| 2012-06-24 | 50km | 8:26:28 h | 5.923 | 46/48 | |
| 2012-06-30 | 50km | 7:24:26 h | 6.750 | 47/55 | |
| 2012-09-02 | Roots Rock 50K RunUnited States | 50km | 7:45:55 h | 6.439 | 9/13 |
| 2012-10-13 | 50km | 6:38:48 h | 7.523 | 66/97 | |
| 2012-12-01 | Bigfoot 50K Trail RaceUnited States | 50km | 7:18:18 h | 6.845 | 103/124 |
| 2013-01-19 | 34mi | 8:19:23 h | 6.574 | 22/25 | |
| 2013-02-02 | 50km | 8:36:29 h | 5.809 | 196/215 | |
| 2013-03-16 | 50km | 7:36:37 h | 6.570 | 315/346 | |
| 2013-03-30 | 50km | 6:36:14 h | 7.571 | 221/281 | |
| 2013-04-13 | Lumberjack Endurance 50 Mile RunUnited States | 50mi | 12:42:00 h | 6.336 | 7/11 |
| 2013-04-27 | 50mi | 12:02:10 h | 6.685 | 75/87 | |
| 2013-05-18 | 12h | 51.901 km | 4.325 | 53/64 | |
| 2013-06-08 | 50km | 6:37:23 h | 7.549 | 40/48 | |
| 2013-06-15 | 50km | 7:39:54 h | 6.523 | 33/38 | |
| 2013-07-27 | 50mi | 13:19:56 h | 6.036 | 275/286 | |
| 2013-08-10 | Squamish 50miCanada | 50mi | 16:04:36 h | 5.005 | 103/104 |
| 2013-12-14 | 50km | 7:29:16 h | 6.678 | 160/183 | |
| 2014-01-18 | 34mi | 8:06:46 h | 6.745 | 46/56 | |
| 2014-02-01 | 50km | 8:41:53 h | 5.748 | 190/200 | |
| 2014-03-15 | 50km | 7:45:19 h | 6.447 | 329/348 | |
| 2014-03-22 | 12h | 46.349 km | 3.862 | 98/98 | |
| 2014-10-04 | 50km | 8:07:24 h | 6.155 | 155/178 | |
| 2015-01-31 | Lake Youngs Nuts RunUnited States | 50km | 6:36:45 h | 7.561 | 42/47 |
| 2015-02-22 | 50km | 8:24:08 h | 5.951 | 45/48 | |
| 2015-11-14 | 50km | 8:30:40 h | 5.875 | 406/558 | |
| 2016-02-06 | 50km | 8:41:41 h | 5.751 | 229/237 | |
| 2016-06-04 | 50km | 7:22:54 h | 6.774 | 38/50 | |
| 2016-10-01 | 50km | 8:22:52 h | 5.966 | 111/120 | |
| 2017-05-13 | 50km | 9:44:08 h | 5.136 | 40/44 | |
| 2017-06-03 | 50km | 7:25:46 h | 6.730 | 35/41 | |
| 2017-07-22 | 50km | 12:04:00 h | 4.144 | 54/57 | |
| 2017-09-09 | 50km | 11:05:09 h | 4.510 | 106/115 | |
| 2017-09-23 | 50km | 7:45:00 h | 6.452 | 15/17 | |
| 2017-10-07 | 50km | 7:44:31 h | 6.458 | 122/159 | |
| 2017-12-16 | 50km | 6:06:06 h | 8.194 | 21/27 | |
| 2018-01-20 | 50km | 7:52:33 h | 6.349 | 55/59 | |
| 2018-04-28 | 50mi | 13:00:54 h | 6.183 | 60/61 | |
| 2018-05-12 | 50km | 8:31:02 h | 5.870 | 46/66 | |
| 2018-06-02 | 50km | 7:21:19 h | 6.798 | 39/47 | |
| 2018-06-16 | 50km | 6:28:08 h | 7.729 | 51/69 | |
| 2018-07-28 | 50mi | 14:06:15 h | 5.705 | 207/216 | |
| 2018-09-01 | 50km | 9:44:39 h | 5.131 | 129/150 | |
| 2018-10-06 | 50km | 7:32:35 h | 6.629 | 94/145 | |
| 2018-10-13 | 50km | 6:20:30 h | 7.884 | 37/64 | |
| 2018-12-08 | 50km | 7:58:21 h | 6.272 | 123/157 | |
| 2019-01-19 | 50km | 7:29:37 h | 6.672 | 95/111 | |
| 2019-03-29 | 50mi | 13:05:27 h | 6.147 | 101/128 | |
| 2019-05-04 | 50km | 8:04:06 h | 6.197 | 30/36 | |
| 2019-05-18 | 50km | 9:28:00 h | 5.282 | 26/33 | |
| 2019-06-01 | 50km | 6:40:04 h | 7.499 | 48/61 | |
| 2019-06-08 | 50mi | 12:46:00 h | 6.303 | 14/22 | |
| 2019-07-06 | 50km | 11:41:00 h | 4.280 | 64/65 | |
| 2019-09-14 | 50km | 9:13:02 h | 5.425 | 51/57 | |
| 2019-10-05 | 50km | 7:48:57 h | 6.397 | 114/140 | |
| 2021-03-26 | 50mi | 13:21:20 h | 6.025 | 111/165 | |
| 2021-05-08 | 50km | 8:53:01 h | 5.628 | 223/252 | |
| 2021-09-11 | 50km | 9:55:03 h | 5.042 | 51/54 | |
| 2021-10-02 | 50km | 8:04:28 h | 6.192 | 86/108 | |
| 2022-01-22 | 50km | 7:58:00 h | 6.276 | 55/57 | |
| 2022-06-04 | 50km | 6:57:00 h | 7.194 | 34/42 | |
| 2022-07-09 | 50km | 10:38:53 h | 4.696 | 32/40 | |
| 2022-09-10 | 50km | 9:46:23 h | 5.116 | 22/25 | |
| 2022-10-01 | Baker Lake 50K Ultra Trail RunUnited States | 50km | 8:27:40 h | 5.909 | 73/90 |
| 2023-04-01 | 12h | 65.661 km | 5.472 | 2/5 | |
| 2023-05-20 | 50km | 10:12:47 h | 4.896 | 27/36 | |
| 2023-06-17 | 50mi | 13:30:00 h | 5.961 | 15/25 | |
| 2023-09-16 | 50km | 8:50:32 h | 5.655 | 27/47 | |
| 2024-05-18 | 50km | 10:22:33 h | 4.819 | 31/39 | |
| 2024-06-08 | 50mi | 13:54:00 h | 5.789 | 15/25 | |
| 2024-08-17 | 50km | 10:07:51 h | 4.935 | 36/42 | |
| 2024-11-09 | 50km | 7:21:27 h | 6.796 | 43/67 | |
| 2025-01-18 | 50km | 7:44:23 h | 6.460 | 73/78 | |
| 2025-06-07 | 50km | 7:19:14 h | 6.830 | 37/37 | |
| 2025-08-16 | 50km | 10:03:10 h | 4.974 | 67/76 | |
| 2025-10-04 | 50km | 8:34:23 h | 5.832 | 83/92 | |
| 2026-08-15 | 50km | 10:42:25 h | 4.670 | 78/82 |